<?xml version="1.0" encoding="utf-8"?>
<gpx xmlns:xsi="http://www.w3.org/2001/XMLSchema-instance" xmlns:xsd="http://www.w3.org/2001/XMLSchema" version="1.1" creator="Shapelink.com" xmlns="http://www.topografix.com/GPX/1/1" xmlns:gpxtpx="http://www.garmin.com/xmlschemas/TrackPointExtension/v1">
  <metadata>
    <name>Övrigt 1.68 km, 2020-07-26</name>
    <desc></desc>
    <author><name>Marian Moron</name></author> 
    <time>2020-07-26T20:11:23Z</time>
  </metadata>
  <trk>
    <name>Övrigt 1.68 km, 2020-07-26</name>
    <trkseg>
      <trkpt lat="51.230029804786" lon="4.458590688701">
        <ele>0</ele>
        <time>2020-07-26T20:11:23Z</time>
      </trkpt>
      <trkpt lat="51.230023518361" lon="4.458619354799">
        <ele>0</ele>
        <time>2020-07-26T20:11:25Z</time>
      </trkpt>
      <trkpt lat="51.230091998484" lon="4.45878607079">
        <ele>0</ele>
        <time>2020-07-26T20:11:41Z</time>
      </trkpt>
      <trkpt lat="51.230440685524" lon="4.458821861503">
        <ele>0</ele>
        <time>2020-07-26T20:12:22Z</time>
      </trkpt>
      <trkpt lat="51.230499777919" lon="4.459404822648">
        <ele>0</ele>
        <time>2020-07-26T20:13:08Z</time>
      </trkpt>
      <trkpt lat="51.230518301918" lon="4.459504734896">
        <ele>0</ele>
        <time>2020-07-26T20:13:24Z</time>
      </trkpt>
      <trkpt lat="51.230566665481" lon="4.459738589906">
        <ele>0</ele>
        <time>2020-07-26T20:13:38Z</time>
      </trkpt>
      <trkpt lat="51.23064302459" lon="4.45992600919">
        <ele>1</ele>
        <time>2020-07-26T20:13:59Z</time>
      </trkpt>
      <trkpt lat="51.230629529731" lon="4.460096245579">
        <ele>1.2</ele>
        <time>2020-07-26T20:14:22Z</time>
      </trkpt>
      <trkpt lat="51.230614358492" lon="4.46017998076">
        <ele>1.4</ele>
        <time>2020-07-26T20:14:27Z</time>
      </trkpt>
      <trkpt lat="51.230622991849" lon="4.460456415822">
        <ele>1.2</ele>
        <time>2020-07-26T20:14:48Z</time>
      </trkpt>
      <trkpt lat="51.230496425159" lon="4.46080107955">
        <ele>1</ele>
        <time>2020-07-26T20:15:45Z</time>
      </trkpt>
      <trkpt lat="51.230058554703" lon="4.460963772229">
        <ele>1.2</ele>
        <time>2020-07-26T20:16:19Z</time>
      </trkpt>
      <trkpt lat="51.229991499503" lon="4.46095698289">
        <ele>0</ele>
        <time>2020-07-26T20:16:49Z</time>
      </trkpt>
      <trkpt lat="51.229631161622" lon="4.461272561425">
        <ele>1.8</ele>
        <time>2020-07-26T20:17:37Z</time>
      </trkpt>
      <trkpt lat="51.229654379485" lon="4.461594929299">
        <ele>13.8</ele>
        <time>2020-07-26T20:18:16Z</time>
      </trkpt>
      <trkpt lat="51.229686063067" lon="4.461585290114">
        <ele>14.2</ele>
        <time>2020-07-26T20:18:19Z</time>
      </trkpt>
      <trkpt lat="51.229744736367" lon="4.461585541571">
        <ele>4.8</ele>
        <time>2020-07-26T20:18:46Z</time>
      </trkpt>
      <trkpt lat="51.229851605592" lon="4.461529885755">
        <ele>3.6</ele>
        <time>2020-07-26T20:19:01Z</time>
      </trkpt>
      <trkpt lat="51.229893598911" lon="4.461542626243">
        <ele>1.6</ele>
        <time>2020-07-26T20:19:06Z</time>
      </trkpt>
      <trkpt lat="51.230052016821" lon="4.462129694519">
        <ele>0</ele>
        <time>2020-07-26T20:19:51Z</time>
      </trkpt>
      <trkpt lat="51.230182606823" lon="4.462712739483">
        <ele>0</ele>
        <time>2020-07-26T20:20:36Z</time>
      </trkpt>
      <trkpt lat="51.230266928737" lon="4.462938044955">
        <ele>0</ele>
        <time>2020-07-26T20:21:12Z</time>
      </trkpt>
      <trkpt lat="51.230365332243" lon="4.463329312047">
        <ele>0</ele>
        <time>2020-07-26T20:21:43Z</time>
      </trkpt>
      <trkpt lat="51.2304410208" lon="4.463431990322">
        <ele>0</ele>
        <time>2020-07-26T20:22:16Z</time>
      </trkpt>
      <trkpt lat="51.230436494574" lon="4.463849408942">
        <ele>0.4</ele>
        <time>2020-07-26T20:22:54Z</time>
      </trkpt>
      <trkpt lat="51.230249745842" lon="4.463994164355">
        <ele>0</ele>
        <time>2020-07-26T20:23:18Z</time>
      </trkpt>
      <trkpt lat="51.229871805971" lon="4.464306893044">
        <ele>0</ele>
        <time>2020-07-26T20:24:58Z</time>
      </trkpt>
      <trkpt lat="51.229816317793" lon="4.464288955778">
        <ele>0</ele>
        <time>2020-07-26T20:25:02Z</time>
      </trkpt>
      <trkpt lat="51.229797709975" lon="4.464295661298">
        <ele>0</ele>
        <time>2020-07-26T20:25:04Z</time>
      </trkpt>
      <trkpt lat="51.229515323764" lon="4.464518703657">
        <ele>5.4</ele>
        <time>2020-07-26T20:26:00Z</time>
      </trkpt>
      <trkpt lat="51.229625126654" lon="4.464190971367">
        <ele>8.4</ele>
        <time>2020-07-26T20:27:15Z</time>
      </trkpt>
      <trkpt lat="51.2295357756" lon="4.464363303231">
        <ele>5</ele>
        <time>2020-07-26T20:27:38Z</time>
      </trkpt>
      <trkpt lat="51.229080722249" lon="4.464384090343">
        <ele>0</ele>
        <time>2020-07-26T20:28:27Z</time>
      </trkpt>
      <trkpt lat="51.228651066055" lon="4.46426950977">
        <ele>0</ele>
        <time>2020-07-26T20:29:15Z</time>
      </trkpt>
      <trkpt lat="51.228525505193" lon="4.464030793258">
        <ele>3.6</ele>
        <time>2020-07-26T20:30:14Z</time>
      </trkpt>
      <trkpt lat="51.228523409718" lon="4.463999864047">
        <ele>3.8</ele>
        <time>2020-07-26T20:30:16Z</time>
      </trkpt>
      <trkpt lat="51.228394496096" lon="4.463465098827">
        <ele>2.4</ele>
        <time>2020-07-26T20:30:54Z</time>
      </trkpt>
      <trkpt lat="51.228197856722" lon="4.463288743651">
        <ele>0</ele>
        <time>2020-07-26T20:31:20Z</time>
      </trkpt>
      <trkpt lat="51.228078917561" lon="4.463264939055">
        <ele>0</ele>
        <time>2020-07-26T20:31:40Z</time>
      </trkpt>
      <trkpt lat="51.227845900741" lon="4.463167122282">
        <ele>0</ele>
        <time>2020-07-26T20:32:10Z</time>
      </trkpt>
      <trkpt lat="51.227791669848" lon="4.463098893616">
        <ele>0</ele>
        <time>2020-07-26T20:32:19Z</time>
      </trkpt>
      <trkpt lat="51.227650937747" lon="4.462722797763">
        <ele>0</ele>
        <time>2020-07-26T20:32:46Z</time>
      </trkpt>
      <trkpt lat="51.227488831801" lon="4.4620541736">
        <ele>7</ele>
        <time>2020-07-26T20:33:30Z</time>
      </trkpt>
      <trkpt lat="51.227339885438" lon="4.461388399283">
        <ele>0</ele>
        <time>2020-07-26T20:34:08Z</time>
      </trkpt>
      <trkpt lat="51.227359918179" lon="4.461257138729">
        <ele>0.4</ele>
        <time>2020-07-26T20:34:19Z</time>
      </trkpt>
      <trkpt lat="51.227430493777" lon="4.46063008879">
        <ele>12.4</ele>
        <time>2020-07-26T20:36:40Z</time>
      </trkpt>
      <trkpt lat="51.227424877904" lon="4.460516597864">
        <ele>15</ele>
        <time>2020-07-26T20:36:49Z</time>
      </trkpt>
      <trkpt lat="51.227241398113" lon="4.45998216792">
        <ele>2.4</ele>
        <time>2020-07-26T20:37:21Z</time>
      </trkpt>
      <trkpt lat="51.22706730605" lon="4.459399961146">
        <ele>6</ele>
        <time>2020-07-26T20:38:04Z</time>
      </trkpt>
      <trkpt lat="51.227018188116" lon="4.459235424449">
        <ele>0</ele>
        <time>2020-07-26T20:38:39Z</time>
      </trkpt>
      <trkpt lat="51.227037215029" lon="4.459214134423">
        <ele>0</ele>
        <time>2020-07-26T20:38:41Z</time>
      </trkpt>
      <trkpt lat="51.227446000292" lon="4.45888916816">
        <ele>3</ele>
        <time>2020-07-26T20:39:18Z</time>
      </trkpt>
      <trkpt lat="51.227875069753" lon="4.458670065294">
        <ele>1.2</ele>
        <time>2020-07-26T20:39:54Z</time>
      </trkpt>
      <trkpt lat="51.228200622749" lon="4.458446771478">
        <ele>0</ele>
        <time>2020-07-26T20:40:36Z</time>
      </trkpt>
      <trkpt lat="51.228633128789" lon="4.4582907005">
        <ele>0</ele>
        <time>2020-07-26T20:41:02Z</time>
      </trkpt>
      <trkpt lat="51.228853069845" lon="4.458229093535">
        <ele>0</ele>
        <time>2020-07-26T20:41:23Z</time>
      </trkpt>
      <trkpt lat="51.229298232554" lon="4.458077297326">
        <ele>0</ele>
        <time>2020-07-26T20:42:06Z</time>
      </trkpt>
      <trkpt lat="51.229375848948" lon="4.458023066433">
        <ele>0</ele>
        <time>2020-07-26T20:42:26Z</time>
      </trkpt>
      <trkpt lat="51.229742389435" lon="4.458017199103">
        <ele>0</ele>
        <time>2020-07-26T20:43:20Z</time>
      </trkpt>
    </trkseg>
  </trk>
</gpx>